Time;durP1;ratioP1;P1;durP2;ratioP2;P2;SDS_P1;SDS_P2;PMS_P1;PMS_P2;Temp;Humidity;BMP_temperature;BMP_pressure;BME280_temperature;BME280_humidity;BME280_pressure;Samples;Min_cycle;Max_cycle;Signal;HPM_P1;HPM_P2
2023/10/17 00:00:47;;;;;;;1.02;0.98;;;;;;;4.49;73.67;100206.81;5114699;28;20126;-70
2023/10/17 00:03:16;;;;;;;3.43;1.40;;;;;;;4.35;74.12;100205.53;5114547;28;20044;-70
2023/10/17 00:05:45;;;;;;;0.80;0.80;;;;;;;4.38;74.34;100210.69;5114485;28;20045;-70
2023/10/17 00:08:14;;;;;;;0.38;0.38;;;;;;;4.51;74.24;100207.75;5114448;28;20036;-70
2023/10/17 00:10:45;;;;;;;;;;;;;;;4.65;74.28;100206.50;5114136;28;20043;-69
2023/10/17 00:16:06;;;;;;;0.50;0.50;;;;;;;4.78;74.28;100203.53;5108315;28;20060;-69
2023/10/17 00:18:35;;;;;;;0.60;0.60;;;;;;;4.68;74.06;100201.53;5114270;28;20048;-69
2023/10/17 00:21:10;;;;;;;0.60;0.60;;;;;;;4.59;74.19;100206.31;5114522;28;20043;-69
2023/10/17 00:23:40;;;;;;;0.70;0.70;;;;;;;4.57;74.33;100207.94;5114264;28;20127;-70
2023/10/17 00:26:12;;;;;;;0.30;0.30;;;;;;;4.58;74.41;100204.59;5114289;28;20093;-69
2023/10/17 00:28:43;;;;;;;0.35;0.35;;;;;;;4.69;74.19;100208.31;5114174;28;20056;-69
2023/10/17 00:31:13;;;;;;;0.30;0.30;;;;;;;4.72;74.27;100201.69;5114107;28;20036;-70
2023/10/17 00:33:48;;;;;;;0.40;0.40;;;;;;;4.65;74.02;100206.50;5114156;28;20130;-70
2023/10/17 00:36:19;;;;;;;1.35;1.05;;;;;;;4.66;74.32;100208.22;5112588;28;20036;-69
2023/10/17 00:38:48;;;;;;;1.58;1.48;;;;;;;4.74;73.82;100206.78;5114314;28;20061;-70
2023/10/17 00:41:29;;;;;;;0.57;0.57;;;;;;;4.82;73.93;100210.41;5114077;28;20122;-69
2023/10/17 00:43:59;;;;;;;1.30;1.20;;;;;;;4.83;73.61;100209.59;5114114;28;20044;-70
2023/10/17 00:46:28;;;;;;;0.20;0.20;;;;;;;4.85;73.57;100207.13;5112889;28;20051;-69
2023/10/17 00:49:07;;;;;;;3.45;2.15;;;;;;;4.85;73.36;100205.44;5114198;28;20670;-70
2023/10/17 00:51:39;;;;;;;0.35;0.35;;;;;;;4.86;73.14;100202.09;5113978;28;20131;-69
2023/10/17 00:54:11;;;;;;;0.22;0.22;;;;;;;4.78;72.89;100192.56;5113165;28;20036;-69
2023/10/17 00:56:43;;;;;;;0.30;0.30;;;;;;;4.79;73.30;100196.81;5114207;28;20047;-69
2023/10/17 00:59:12;;;;;;;0.65;0.65;;;;;;;4.82;73.44;100182.59;5114137;28;20044;-70
2023/10/17 01:01:42;;;;;;;0.25;0.25;;;;;;;4.81;73.19;100185.94;5113896;28;20515;-69
2023/10/17 01:04:13;;;;;;;1.45;1.15;;;;;;;4.79;73.16;100200.22;5114165;28;20046;-69
2023/10/17 01:06:42;;;;;;;0.35;0.35;;;;;;;4.73;73.48;100185.69;5114172;28;20447;-69
2023/10/17 01:09:18;;;;;;;0.50;0.50;;;;;;;4.78;73.41;100188.38;5112851;28;20040;-69
2023/10/17 01:11:49;;;;;;;1.05;0.73;;;;;;;4.70;73.26;100184.75;5112635;28;20032;-69
2023/10/17 01:14:19;;;;;;;0.43;0.43;;;;;;;4.70;73.36;100184.75;5113105;28;20401;-69
2023/10/17 01:16:51;;;;;;;1.58;1.48;;;;;;;4.72;73.20;100184.00;5113683;28;20039;-69
2023/10/17 01:19:21;;;;;;;0.55;0.55;;;;;;;4.73;73.64;100190.75;5112782;28;20035;-70
2023/10/17 01:21:51;;;;;;;0.30;0.30;;;;;;;4.73;73.49;100194.94;5114601;28;20389;-69
2023/10/17 01:24:22;;;;;;;0.75;0.75;;;;;;;4.77;73.44;100188.34;5117653;28;20040;-70
2023/10/17 01:26:51;;;;;;;0.68;0.68;;;;;;;4.78;73.52;100178.25;5117731;27;20497;-69
2023/10/17 01:29:23;;;;;;;0.25;0.25;;;;;;;4.67;73.39;100189.72;5117493;28;20130;-69
2023/10/17 01:31:54;;;;;;;2.70;1.25;;;;;;;4.58;73.16;100184.38;5116361;28;20036;-69
2023/10/17 01:34:24;;;;;;;0.30;0.30;;;;;;;4.58;73.38;100186.91;5117572;28;20043;-69
2023/10/17 01:36:53;;;;;;;0.77;0.77;;;;;;;4.59;73.77;100186.09;5116032;28;20046;-69
2023/10/17 01:39:26;;;;;;;0.40;0.40;;;;;;;4.56;73.62;100178.41;5117464;28;20486;-69
2023/10/17 01:41:55;;;;;;;0.30;0.30;;;;;;;4.48;73.70;100182.38;5117232;28;20513;-69
2023/10/17 01:44:24;;;;;;;0.73;0.73;;;;;;;4.37;73.62;100183.69;5117800;28;20066;-69
2023/10/17 01:46:53;;;;;;;2.33;1.17;;;;;;;4.32;74.47;100183.53;5117205;28;20040;-70
2023/10/17 01:49:22;;;;;;;0.30;0.30;;;;;;;4.40;74.06;100188.84;5117191;28;20035;-70
2023/10/17 01:51:51;;;;;;;0.43;0.43;;;;;;;4.50;74.47;100185.81;5117081;28;20059;-69
2023/10/17 01:54:21;;;;;;;3.90;1.48;;;;;;;4.56;74.03;100183.44;5116121;28;20379;-69
2023/10/17 01:56:52;;;;;;;0.40;0.40;;;;;;;4.69;74.03;100180.50;5115842;28;20044;-70
2023/10/17 01:59:26;;;;;;;0.35;0.35;;;;;;;4.64;74.36;100184.56;5115777;28;20066;-69
2023/10/17 02:01:58;;;;;;;1.75;1.25;;;;;;;4.56;74.30;100185.97;5115887;28;20177;-69
2023/10/17 02:04:29;;;;;;;0.75;0.75;;;;;;;4.56;74.28;100188.50;5117213;28;20043;-69
2023/10/17 02:06:58;;;;;;;0.80;0.80;;;;;;;4.59;74.21;100181.03;5115692;28;20043;-69
2023/10/17 02:09:44;;;;;;;0.25;0.25;;;;;;;4.70;74.49;100179.72;5115838;28;20118;-70
2023/10/17 02:12:19;;;;;;;0.63;0.63;;;;;;;4.69;74.05;100183.03;5116986;28;20051;-70
2023/10/17 02:14:48;;;;;;;2.13;1.33;;;;;;;4.75;74.42;100184.06;5117011;27;20059;-69
2023/10/17 02:17:19;;;;;;;0.73;0.73;;;;;;;4.83;74.47;100181.78;5116536;28;20046;-70
2023/10/17 02:19:48;;;;;;;0.32;0.32;;;;;;;4.82;74.01;100180.09;5115390;28;20101;-69
2023/10/17 02:22:17;;;;;;;1.65;1.38;;;;;;;4.70;74.55;100179.72;5115308;28;20481;-70
2023/10/17 02:24:46;;;;;;;0.73;0.60;;;;;;;4.65;74.57;100186.28;5115853;28;20040;-70
2023/10/17 02:27:21;;;;;;;0.77;0.77;;;;;;;4.57;74.66;100190.25;5115521;28;20078;-69
2023/10/17 02:29:53;;;;;;;0.90;0.90;;;;;;;4.57;74.81;100190.25;5116420;28;20048;-69
2023/10/17 02:32:22;;;;;;;0.40;0.40;;;;;;;4.67;75.17;100192.25;5115991;28;20072;-69
2023/10/17 02:34:52;;;;;;;1.00;1.00;;;;;;;4.66;74.98;100193.03;5114947;28;20043;-68
2023/10/17 02:37:29;;;;;;;0.75;0.75;;;;;;;4.65;75.14;100189.66;5116223;28;20075;-68
2023/10/17 02:40:06;;;;;;;0.98;0.68;;;;;;;4.61;74.72;100189.50;5116167;28;20040;-69
2023/10/17 02:42:36;;;;;;;0.50;0.50;;;;;;;4.58;75.24;100189.44;5115089;28;20113;-69
2023/10/17 02:45:07;;;;;;;0.50;0.50;;;;;;;4.56;75.06;100191.91;5116662;28;20409;-69
2023/10/17 02:47:36;;;;;;;0.80;0.80;;;;;;;4.63;75.27;100183.69;5116044;28;20130;-69
2023/10/17 02:50:20;;;;;;;0.30;0.30;;;;;;;4.56;75.24;100178.41;5115997;28;20040;-69
2023/10/17 02:52:51;;;;;;;0.88;0.60;;;;;;;4.65;75.41;100183.75;5115041;28;20043;-68
2023/10/17 02:55:25;;;;;;;0.30;0.30;;;;;;;4.63;74.94;100177.81;5116191;28;20501;-69
2023/10/17 02:57:56;;;;;;;1.02;1.00;;;;;;;4.67;75.25;100180.47;5115914;28;20047;-68
2023/10/17 03:00:25;;;;;;;0.80;0.73;;;;;;;4.70;75.17;100184.75;5115873;28;20051;-69
2023/10/17 03:02:55;;;;;;;0.50;0.50;;;;;;;4.74;74.81;100176.44;5115975;28;20071;-68
2023/10/17 03:05:27;;;;;;;0.40;0.40;;;;;;;4.70;75.22;100182.25;5115792;28;20100;-69
2023/10/17 03:07:56;;;;;;;0.82;0.82;;;;;;;4.72;75.22;100188.19;5115976;28;20055;-69
2023/10/17 03:10:37;;;;;;;0.50;0.50;;;;;;;4.71;74.91;100186.47;5115643;28;20036;-69
2023/10/17 03:13:22;;;;;;;0.40;0.40;;;;;;;4.71;74.79;100183.94;5115979;28;20043;-69
2023/10/17 03:15:54;;;;;;;0.47;0.47;;;;;;;4.69;74.98;100185.56;5114286;28;20039;-69
2023/10/17 03:18:22;;;;;;;0.63;0.63;;;;;;;4.57;74.79;100193.63;5115476;28;20043;-69
2023/10/17 03:20:51;;;;;;;0.40;0.40;;;;;;;4.63;75.23;100192.97;5115425;28;20535;-68
2023/10/17 03:23:28;;;;;;;3.13;1.77;;;;;;;4.60;74.60;100191.22;5114319;28;20046;-69
2023/10/17 03:26:00;;;;;;;0.40;0.40;;;;;;;4.56;74.42;100191.91;5114367;28;20051;-69
2023/10/17 03:28:33;;;;;;;5.07;1.58;;;;;;;4.51;74.64;100198.47;5114121;28;20054;-69
2023/10/17 03:31:10;;;;;;;1.17;1.13;;;;;;;4.49;75.07;100189.13;5115518;28;20494;-69
2023/10/17 03:33:42;;;;;;;4.65;1.25;;;;;;;4.52;75.03;100199.34;5113927;28;20047;-69
2023/10/17 03:36:40;;;;;;;0.30;0.30;;;;;;;4.55;75.38;100186.81;5113930;28;20048;-68
2023/10/17 03:39:20;;;;;;;0.50;0.50;;;;;;;4.48;74.78;100187.44;5114947;28;20039;-68
2023/10/17 03:41:56;;;;;;;;;;;;;;;4.38;75.13;100195.53;5115386;28;20043;-69
2023/10/17 03:44:31;;;;;;;0.60;0.60;;;;;;;4.38;75.29;100190.47;5114193;28;19926;-68
2023/10/17 03:47:04;;;;;;;0.40;0.40;;;;;;;4.35;74.93;100190.38;5114868;28;20047;-69
2023/10/17 03:49:37;;;;;;;0.40;0.40;;;;;;;4.22;75.58;100180.69;5114771;28;20046;-68
2023/10/17 03:52:07;;;;;;;1.77;1.67;;;;;;;4.12;75.81;100186.25;5115005;28;20382;-68
2023/10/17 03:54:38;;;;;;;0.85;0.85;;;;;;;4.06;75.98;100187.75;5114699;28;20046;-66
2023/10/17 03:57:15;;;;;;;0.40;0.40;;;;;;;4.03;75.40;100187.66;5114601;28;20401;-68
2023/10/17 03:59:52;;;;;;;0.40;0.40;;;;;;;3.97;76.37;100187.47;5113452;28;20043;-68
2023/10/17 04:02:22;;;;;;;0.55;0.55;;;;;;;4.04;76.00;100189.38;5114564;28;20050;-68
2023/10/17 04:04:53;;;;;;;1.13;1.05;;;;;;;4.11;76.30;100189.56;5114533;28;20047;-67
2023/10/17 04:07:25;;;;;;;0.50;0.50;;;;;;;4.14;75.82;100189.69;5114470;28;20071;-68
2023/10/17 04:10:12;;;;;;;1.85;1.48;;;;;;;4.10;76.42;100187.88;5115072;28;20052;-68
2023/10/17 04:12:48;;;;;;;0.30;0.30;;;;;;;4.12;76.43;100183.72;5114768;28;20071;-70
2023/10/17 04:15:20;;;;;;;0.40;0.40;;;;;;;4.16;76.10;100183.88;5114876;28;20441;-69
2023/10/17 04:17:49;;;;;;;0.35;0.35;;;;;;;4.10;75.79;100185.34;5114324;28;20059;-70
2023/10/17 04:20:22;;;;;;;0.28;0.28;;;;;;;4.06;75.62;100181.84;5114268;28;20043;-68
2023/10/17 04:22:51;;;;;;;0.30;0.30;;;;;;;4.07;75.91;100189.50;5114700;28;20047;-70
2023/10/17 04:25:34;;;;;;;0.40;0.40;;;;;;;4.04;76.42;100181.81;5114432;28;20036;-71
2023/10/17 04:28:03;;;;;;;0.30;0.30;;;;;;;4.01;75.82;100174.13;5114363;28;20040;-70
2023/10/17 04:30:40;;;;;;;0.85;0.85;;;;;;;4.01;76.24;100168.19;5114197;28;20074;-70
2023/10/17 04:33:19;;;;;;;0.40;0.40;;;;;;;3.94;76.01;100174.72;5114459;28;20047;-69
2023/10/17 04:35:59;;;;;;;0.77;0.77;;;;;;;4.03;76.01;100166.63;5114083;28;20062;-70
2023/10/17 04:38:38;;;;;;;0.95;0.93;;;;;;;4.01;75.80;100169.06;5113978;28;20057;-70
2023/10/17 04:41:25;;;;;;;0.50;0.40;;;;;;;4.00;76.17;100167.38;5114403;28;20048;-69
2023/10/17 04:43:55;;;;;;;1.05;1.05;;;;;;;4.08;76.24;100170.97;5114419;28;20558;-70
2023/10/17 04:46:26;;;;;;;1.50;1.23;;;;;;;4.21;76.25;100171.38;5114296;28;20039;-68
2023/10/17 04:49:04;;;;;;;0.30;0.30;;;;;;;4.18;75.74;100187.28;5114023;28;20398;-69
2023/10/17 04:51:37;;;;;;;1.00;1.00;;;;;;;4.16;75.67;100188.91;5113933;28;20051;-70
2023/10/17 04:54:22;;;;;;;0.47;0.47;;;;;;;4.18;75.90;100178.84;5113920;28;20093;-70
2023/10/17 04:56:58;;;;;;;0.38;0.38;;;;;;;4.18;75.83;100187.28;5116281;28;20047;-69
2023/10/17 04:59:41;;;;;;;0.50;0.50;;;;;;;4.13;75.61;100187.97;5118111;28;20393;-71
2023/10/17 06:16:59;;;;;;;0.50;0.50;;;;;;;5.02;75.08;100238.81;5116965;28;20078;-69
2023/10/17 06:19:32;;;;;;;0.50;0.50;;;;;;;5.09;74.58;100234.00;5116749;28;20039;-69
2023/10/17 06:26:02;;;;;;;1.00;0.98;;;;;;;5.40;74.20;100241.66;5096068;28;20044;-68
2023/10/17 06:33:05;;;;;;;1.02;0.60;;;;;;;5.49;73.20;100242.75;5095869;28;20055;-68
2023/10/17 06:35:37;;;;;;;0.65;0.65;;;;;;;5.58;73.39;100245.53;5095900;28;20397;-70
2023/10/17 06:38:09;;;;;;;1.17;0.85;;;;;;;5.71;73.05;100240.84;5095535;28;20040;-69
2023/10/17 06:40:44;;;;;;;0.50;0.50;;;;;;;5.66;72.98;100236.50;5094733;28;20040;-69
2023/10/17 06:43:27;;;;;;;0.30;0.30;;;;;;;5.66;73.48;100246.63;5095708;28;20409;-69
2023/10/17 06:45:57;;;;;;;0.55;0.55;;;;;;;5.87;73.45;100249.78;5095247;28;20048;-69
2023/10/17 06:53:48;;;;;;;0.60;0.60;;;;;;;5.94;72.23;100259.25;5094550;28;20048;-69
2023/10/17 06:56:17;;;;;;;0.20;0.20;;;;;;;5.95;72.32;100260.97;5108803;28;20050;-69
2023/10/17 06:58:48;;;;;;;0.88;0.77;;;;;;;5.98;72.21;100255.97;5115861;28;20424;-69
2023/10/17 07:01:24;;;;;;;0.90;0.80;;;;;;;5.96;72.96;100255.94;5115639;28;20036;-68
2023/10/17 07:03:56;;;;;;;0.52;0.52;;;;;;;6.10;72.62;100256.28;5115648;28;20097;-69
2023/10/17 07:06:25;;;;;;;0.25;0.25;;;;;;;6.14;71.98;100253.03;5115653;28;20035;-69
2023/10/17 07:08:56;;;;;;;1.23;1.15;;;;;;;6.13;72.12;100250.44;5107923;28;20486;-68
2023/10/17 07:11:27;;;;;;;0.30;0.30;;;;;;;6.14;72.44;100247.97;5093633;28;20131;-68
2023/10/17 07:22:11;;;;;;;0.55;0.55;;;;;;;6.50;71.66;100248.88;5095097;28;20047;-68
2023/10/17 07:24:44;;;;;;;1.70;1.05;;;;;;;6.71;70.95;100239.28;5093316;28;20032;-67
2023/10/17 07:27:18;;;;;;;1.05;0.93;;;;;;;6.82;71.14;100241.19;5099179;28;20063;-69
2023/10/17 07:29:58;;;;;;;0.55;0.55;;;;;;;6.97;70.35;100241.53;5095210;28;20097;-68
2023/10/17 07:32:32;;;;;;;0.70;0.70;;;;;;;6.99;69.75;100247.50;5094870;28;20046;-69
2023/10/17 07:35:04;;;;;;;1.65;0.93;;;;;;;7.00;70.36;100251.75;5094994;28;20050;-68
2023/10/17 07:37:48;;;;;;;0.50;0.50;;;;;;;7.03;69.71;100252.66;5101398;28;20077;-68
2023/10/17 07:40:22;;;;;;;0.30;0.30;;;;;;;7.09;69.77;100257.03;5114870;28;20044;-68
2023/10/17 07:42:55;;;;;;;0.57;0.57;;;;;;;7.13;69.42;100234.28;5113211;28;20062;-67
2023/10/17 07:45:24;;;;;;;0.30;0.30;;;;;;;7.23;69.36;100231.13;5115494;28;20041;-67
2023/10/17 07:47:54;;;;;;;0.20;0.20;;;;;;;7.33;69.32;100227.97;5114708;28;20043;-68
2023/10/17 07:50:25;;;;;;;0.60;0.60;;;;;;;7.45;69.38;100227.38;5111752;28;20055;-69
2023/10/17 07:52:59;;;;;;;0.32;0.32;;;;;;;7.53;68.68;100230.06;5094359;28;20044;-66
2023/10/17 07:55:36;;;;;;;0.40;0.40;;;;;;;7.56;68.82;100225.88;5095236;28;20135;-68
2023/10/17 07:58:17;;;;;;;0.32;0.32;;;;;;;7.67;68.75;100226.09;5094214;28;20043;-68
2023/10/17 08:00:48;;;;;;;0.40;0.40;;;;;;;7.84;68.53;100232.38;5094281;28;20044;-68
2023/10/17 08:03:19;;;;;;;1.88;1.35;;;;;;;8.02;67.80;100238.66;5094612;28;20044;-67
2023/10/17 08:06:04;;;;;;;0.88;0.88;;;;;;;8.09;67.49;100232.84;5094347;28;20551;-68
2023/10/17 08:08:35;;;;;;;0.40;0.40;;;;;;;8.09;67.39;100225.22;5111560;28;20111;-67
2023/10/17 08:11:06;;;;;;;0.63;0.63;;;;;;;8.17;66.82;100227.03;5097935;28;20036;-71
2023/10/17 08:13:35;;;;;;;0.63;0.63;;;;;;;8.26;66.22;100225.53;5093941;28;20032;-69
2023/10/17 08:16:08;;;;;;;0.70;0.70;;;;;;;8.37;65.74;100235.91;5094626;28;20127;-68
2023/10/17 08:18:41;;;;;;;0.30;0.30;;;;;;;8.41;66.51;100232.56;5094004;28;20048;-68
2023/10/17 08:23:50;;;;;;;0.40;0.40;;;;;;;8.66;65.69;100235.53;5100035;28;20102;-69
2023/10/17 08:26:22;;;;;;;;;;;;;;;8.80;65.59;100235.78;5114883;28;20040;-69
2023/10/17 08:28:51;;;;;;;0.40;0.40;;;;;;;8.86;65.05;100237.53;5102619;28;19935;-68
2023/10/17 08:31:22;;;;;;;0.65;0.50;;;;;;;8.91;64.52;100231.69;5113930;28;20046;-68
2023/10/17 08:34:08;;;;;;;0.25;0.25;;;;;;;8.94;64.45;100231.72;5110580;28;20043;-68
2023/10/17 08:36:43;;;;;;;0.75;0.75;;;;;;;9.09;64.44;100231.97;5102129;28;20060;-68
2023/10/17 08:41:57;;;;;;;0.68;0.68;;;;;;;9.28;63.03;100236.47;5093676;28;20048;-69
2023/10/17 08:44:29;;;;;;;0.75;0.75;;;;;;;9.41;63.00;100235.78;5097835;28;20024;-69
2023/10/17 08:46:59;;;;;;;0.40;0.40;;;;;;;9.50;63.26;100239.28;5112631;28;20039;-69
2023/10/17 08:49:28;;;;;;;0.55;0.55;;;;;;;9.56;62.61;100227.47;5093609;28;20097;-69
2023/10/17 08:51:58;;;;;;;0.40;0.40;;;;;;;9.68;62.78;100231.84;5094146;28;20040;-69
2023/10/17 08:54:28;;;;;;;1.20;1.10;;;;;;;9.81;62.35;100231.16;5098052;28;20042;-69
2023/10/17 08:56:59;;;;;;;0.77;0.77;;;;;;;9.95;61.80;100227.06;5114192;28;20053;-68
2023/10/17 08:59:59;;;;;;;0.30;0.30;;;;;;;10.01;61.04;100225.44;5114101;28;20078;-69
2023/10/17 09:02:32;;;;;;;0.80;0.75;;;;;;;10.10;61.27;100230.63;5113511;28;20054;-69
2023/10/17 09:05:03;;;;;;;0.60;0.57;;;;;;;10.21;61.47;100219.69;5099780;28;20040;-69
2023/10/17 09:07:42;;;;;;;0.30;0.30;;;;;;;10.36;61.27;100224.94;5101264;28;20047;-69
2023/10/17 09:10:27;;;;;;;0.20;0.20;;;;;;;10.44;61.24;100221.59;5102315;28;20051;-69
2023/10/17 09:15:48;;;;;;;20.42;1.27;;;;;;;10.63;59.71;100218.34;5113618;28;20048;-69
2023/10/17 09:18:27;;;;;;;1.45;1.27;;;;;;;10.83;59.65;100210.84;5113723;28;20059;-69
2023/10/17 09:20:57;;;;;;;1.08;1.02;;;;;;;10.96;59.40;100206.69;5112575;28;20447;-68
2023/10/17 09:23:28;;;;;;;0.32;0.32;;;;;;;11.00;59.11;100204.16;5114043;28;20520;-67
2023/10/17 09:25:59;;;;;;;0.73;0.57;;;;;;;11.04;58.65;100210.13;5113625;28;20100;-67
2023/10/17 09:28:32;;;;;;;0.50;0.50;;;;;;;11.07;57.78;100203.34;5112593;28;20092;-69
2023/10/17 09:31:06;;;;;;;0.35;0.35;;;;;;;11.28;57.59;100200.03;5103184;28;20039;-69
2023/10/17 09:33:37;;;;;;;0.40;0.40;;;;;;;11.37;57.03;100200.09;5113527;28;20055;-69
2023/10/17 09:36:06;;;;;;;0.63;0.57;;;;;;;11.42;56.24;100203.53;5113223;28;20062;-69
2023/10/17 09:38:41;;;;;;;0.45;0.45;;;;;;;11.51;55.79;100198.44;5113757;28;20401;-69
2023/10/17 09:41:11;;;;;;;0.77;0.65;;;;;;;11.64;55.42;100202.72;5111270;28;20039;-70
2023/10/17 09:43:51;;;;;;;9.05;3.92;;;;;;;11.86;55.22;100196.88;5100067;28;20131;-70
2023/10/17 09:46:26;;;;;;;0.45;0.45;;;;;;;11.98;54.78;100194.34;5096381;28;20039;-70
2023/10/17 09:49:02;;;;;;;1.30;1.20;;;;;;;12.05;54.26;100188.38;5106004;28;20060;-70
2023/10/17 09:51:34;;;;;;;0.80;0.77;;;;;;;12.15;53.91;100178.16;5117181;28;20102;-69
2023/10/17 09:54:04;;;;;;;0.50;0.50;;;;;;;12.14;53.28;100184.13;5105262;28;20066;-69
2023/10/17 09:56:38;;;;;;;1.08;0.98;;;;;;;12.26;53.48;100172.19;5098383;28;20502;-70
2023/10/17 09:59:13;;;;;;;0.85;0.85;;;;;;;12.49;53.07;100164.50;5096811;28;20063;-70
2023/10/17 10:01:49;;;;;;;0.30;0.30;;;;;;;12.69;52.32;100162.78;5096829;28;20052;-70
2023/10/17 10:04:19;;;;;;;2.55;0.70;;;;;;;12.71;51.94;100169.63;5096418;28;20050;-70
2023/10/17 10:06:50;;;;;;;2.95;1.10;;;;;;;12.78;51.95;100163.63;5111187;28;20039;-70
2023/10/17 10:09:27;;;;;;;0.40;0.40;;;;;;;12.77;51.40;100155.91;5117044;28;20043;-71
2023/10/17 10:12:01;;;;;;;1.35;0.80;;;;;;;12.83;51.37;100157.63;5116663;28;20072;-70
2023/10/17 10:14:42;;;;;;;0.70;0.70;;;;;;;12.77;51.43;100164.47;5116781;28;20048;-70
2023/10/17 10:17:14;;;;;;;0.80;0.80;;;;;;;12.88;50.92;100156.78;5111356;28;20078;-71
2023/10/17 10:20:05;;;;;;;1.58;0.90;;;;;;;13.21;50.56;100154.13;5116644;28;20044;-70
2023/10/17 10:22:52;;;;;;;0.57;0.57;;;;;;;13.38;50.26;100147.22;5115148;28;20075;-71
2023/10/17 10:25:22;;;;;;;0.57;0.57;;;;;;;13.42;51.01;100146.34;5114411;28;20043;-70
2023/10/17 10:28:16;;;;;;;0.60;0.60;;;;;;;13.55;50.62;100143.72;5117006;28;20043;-70
2023/10/17 10:30:48;;;;;;;0.38;0.38;;;;;;;13.77;50.33;100141.00;5100163;28;20086;-70
2023/10/17 10:33:18;;;;;;;1.65;1.05;;;;;;;13.78;49.27;100141.84;5115015;28;20044;-71
2023/10/17 10:35:50;;;;;;;3.40;2.75;;;;;;;13.78;48.86;100126.47;5116562;28;20067;-70
2023/10/17 10:38:27;;;;;;;1.45;1.35;;;;;;;13.79;48.65;100125.63;5116576;28;20068;-70
2023/10/17 10:40:56;;;;;;;1.00;0.90;;;;;;;13.83;48.29;100130.72;5116409;28;20405;-70
2023/10/17 10:43:25;;;;;;;0.60;0.60;;;;;;;13.83;48.56;100129.84;5107632;28;20036;-70
2023/10/17 10:45:58;;;;;;;0.95;0.85;;;;;;;14.03;49.11;100118.59;5096001;28;20055;-70
2023/10/17 10:48:28;;;;;;;0.75;0.70;;;;;;;14.41;48.75;100123.44;5095695;28;20085;-71
2023/10/17 10:50:57;;;;;;;0.50;0.50;;;;;;;14.42;48.60;100112.28;5095595;28;20486;-71
2023/10/17 10:53:29;;;;;;;0.88;0.73;;;;;;;14.50;48.19;100113.06;5101631;28;20043;-70
2023/10/17 10:56:01;;;;;;;0.75;0.75;;;;;;;14.56;47.89;100110.47;5097290;28;20052;-71
2023/10/17 10:58:33;;;;;;;1.50;0.77;;;;;;;14.83;47.42;100103.34;5095455;28;20076;-71
2023/10/17 11:01:07;;;;;;;1.05;0.98;;;;;;;14.71;47.49;100105.16;5102186;28;20047;-70
2023/10/17 11:03:41;;;;;;;2.05;1.25;;;;;;;14.67;47.04;100098.34;5094446;28;20502;-71
2023/10/17 11:06:10;;;;;;;0.50;0.50;;;;;;;14.91;47.28;100098.94;5095733;28;20490;-71
2023/10/17 11:08:41;;;;;;;0.60;0.60;;;;;;;14.90;46.33;100094.69;5095186;28;20046;-71
2023/10/17 11:11:14;;;;;;;0.50;0.50;;;;;;;14.85;46.39;100088.75;5096670;28;20044;-71
2023/10/17 11:13:46;;;;;;;1.10;0.65;;;;;;;14.99;46.52;100079.16;5114577;28;20039;-70
2023/10/17 11:16:19;;;;;;;0.50;0.50;;;;;;;15.03;46.27;100079.09;5114618;28;20446;-70
2023/10/17 11:18:49;;;;;;;2.20;1.55;;;;;;;14.83;46.43;100082.78;5115498;28;20044;-70
2023/10/17 11:21:20;;;;;;;0.85;0.85;;;;;;;14.93;46.44;100089.47;5111766;28;20050;-71
2023/10/17 11:23:51;;;;;;;0.85;0.77;;;;;;;14.72;45.81;100081.16;5094094;28;20051;-71
2023/10/17 11:26:25;;;;;;;3.65;0.95;;;;;;;14.84;45.63;100063.88;5094898;28;20555;-70
2023/10/17 11:28:59;;;;;;;0.50;0.50;;;;;;;14.84;46.56;100066.47;5095352;28;20044;-71
2023/10/17 11:31:31;;;;;;;0.75;0.75;;;;;;;15.05;45.59;100058.47;5093989;28;20044;-70
2023/10/17 11:34:04;;;;;;;0.73;0.73;;;;;;;15.09;45.78;100055.84;5094519;28;20054;-70
2023/10/17 11:36:45;;;;;;;0.40;0.40;;;;;;;14.96;45.39;100063.75;5097508;28;20068;-69
2023/10/17 11:39:15;;;;;;;0.50;0.50;;;;;;;14.99;45.23;100062.00;5103782;28;20067;-71
2023/10/17 11:41:48;;;;;;;0.50;0.50;;;;;;;15.21;45.65;100052.28;5115840;28;20039;-70
2023/10/17 11:44:23;;;;;;;0.57;0.57;;;;;;;15.27;45.45;100049.63;5115755;28;20138;-70
2023/10/17 11:47:02;;;;;;;0.70;0.70;;;;;;;15.20;45.41;100040.28;5114946;28;20515;-71
2023/10/17 11:49:35;;;;;;;0.63;0.63;;;;;;;15.43;45.67;100040.81;5113605;28;20046;-71
2023/10/17 11:52:10;;;;;;;0.50;0.50;;;;;;;15.97;46.11;100034.84;5115351;28;20454;-70
2023/10/17 11:54:56;;;;;;;1.58;1.40;;;;;;;16.05;45.45;100032.97;5114862;28;20056;-70
2023/10/17 11:57:25;;;;;;;1.08;1.02;;;;;;;15.99;45.33;100027.94;5114913;28;20439;-70
2023/10/17 11:59:58;;;;;;;0.55;0.50;;;;;;;15.91;44.90;100029.78;5100083;28;20036;-70
2023/10/17 12:02:30;;;;;;;0.60;0.60;;;;;;;15.76;44.53;100024.06;5093180;28;20489;-71
2023/10/17 12:05:02;;;;;;;0.30;0.30;;;;;;;15.60;44.23;100026.00;5093710;28;20036;-71
2023/10/17 12:07:31;;;;;;;0.40;0.40;;;;;;;15.64;44.59;100024.25;5093548;28;20089;-70
2023/10/17 12:10:04;;;;;;;1.17;1.08;;;;;;;15.62;44.22;100015.72;5110147;28;20040;-70
2023/10/17 12:12:35;;;;;;;0.60;0.60;;;;;;;15.71;44.21;100005.25;5114809;28;20039;-70
2023/10/17 12:15:05;;;;;;;0.77;0.77;;;;;;;15.91;44.42;100008.34;5114538;28;20370;-71
2023/10/17 12:17:36;;;;;;;1.17;1.08;;;;;;;15.83;43.93;100013.63;5114473;28;20065;-69
2023/10/17 12:20:11;;;;;;;0.85;0.85;;;;;;;15.55;43.80;100002.06;5102539;28;20043;-70
2023/10/17 12:22:41;;;;;;;0.60;0.60;;;;;;;15.51;44.26;100008.16;5112044;28;20107;-71
2023/10/17 12:25:10;;;;;;;0.60;0.60;;;;;;;15.57;43.77;99997.78;5113164;28;20046;-71
2023/10/17 12:27:39;;;;;;;1.45;1.10;;;;;;;15.75;44.43;100002.59;5114742;28;20046;-71
2023/10/17 12:30:15;;;;;;;0.32;0.32;;;;;;;15.92;44.11;99998.03;5096108;28;20044;-70
2023/10/17 12:32:47;;;;;;;0.65;0.65;;;;;;;16.07;43.62;100000.34;5093667;28;20127;-71
2023/10/17 12:35:21;;;;;;;0.70;0.70;;;;;;;16.16;43.83;99993.31;5094097;28;20494;-71
2023/10/17 12:37:57;;;;;;;0.68;0.68;;;;;;;15.88;43.42;99987.81;5093682;28;20080;-70
2023/10/17 12:40:30;;;;;;;2.60;0.88;;;;;;;15.62;43.66;99990.81;5093530;28;20052;-71
2023/10/17 12:43:01;;;;;;;1.20;1.08;;;;;;;15.68;43.86;99985.56;5093789;28;20047;-71
2023/10/17 12:45:31;;;;;;;3.80;0.95;;;;;;;15.89;43.83;99989.50;5111848;28;20489;-71
2023/10/17 12:48:01;;;;;;;;;;;;;;;16.12;44.10;99996.81;5114259;28;20046;-71
2023/10/17 12:50:33;;;;;;;1.80;1.48;;;;;;;16.18;43.73;99994.13;5093483;28;19920;-71
2023/10/17 12:53:02;;;;;;;1.95;1.15;;;;;;;15.99;43.80;99997.03;5091695;28;20055;-72
2023/10/17 12:55:31;;;;;;;0.70;0.70;;;;;;;15.94;43.19;99991.13;5104343;28;20048;-71
2023/10/17 12:58:00;;;;;;;0.80;0.80;;;;;;;16.05;43.37;99986.63;5093697;28;20047;-71
2023/10/17 13:00:30;;;;;;;0.40;0.40;;;;;;;16.19;43.00;99988.09;5093703;28;20376;-71
2023/10/17 13:03:01;;;;;;;0.75;0.75;;;;;;;16.28;42.60;99975.06;5093154;28;20300;-72
2023/10/17 13:05:30;;;;;;;0.40;0.40;;;;;;;16.04;42.37;99978.94;5097393;28;20110;-70
2023/10/17 13:07:59;;;;;;;0.52;0.50;;;;;;;15.97;42.34;99973.06;5093654;28;20036;-71
2023/10/17 13:10:28;;;;;;;0.50;0.50;;;;;;;15.97;42.73;99967.91;5093402;28;20052;-71
2023/10/17 13:12:59;;;;;;;0.70;0.70;;;;;;;15.79;42.72;99963.06;5096795;28;20132;-71
2023/10/17 13:15:29;;;;;;;0.70;0.70;;;;;;;15.88;43.31;99973.19;5098854;28;20039;-71
2023/10/17 13:18:00;;;;;;;1.40;1.05;;;;;;;15.92;43.12;99968.84;5095439;28;20071;-72
2023/10/17 13:20:32;;;;;;;0.45;0.45;;;;;;;15.96;43.42;99961.03;5110272;28;20115;-70
2023/10/17 13:23:21;;;;;;;1.55;1.35;;;;;;;15.92;43.41;99963.72;5117606;28;20044;-69
2023/10/17 13:25:50;;;;;;;1.48;0.50;;;;;;;15.75;43.68;99961.44;5118194;28;20480;-71
2023/10/17 13:28:20;;;;;;;0.50;0.50;;;;;;;15.57;43.60;99956.59;5117579;28;20493;-70
2023/10/17 13:30:49;;;;;;;0.60;0.60;;;;;;;15.34;43.86;99959.50;5117873;28;20031;-70
2023/10/17 13:33:21;;;;;;;0.97;0.70;;;;;;;15.01;44.93;99965.16;5116453;28;20085;-71
2023/10/17 13:35:51;;;;;;;0.68;0.57;;;;;;;14.88;45.42;99967.88;5117065;28;20138;-70
2023/10/17 13:38:21;;;;;;;0.85;0.85;;;;;;;14.74;45.33;99960.38;5117763;28;20044;-70
2023/10/17 13:40:50;;;;;;;0.85;0.85;;;;;;;14.64;46.06;99959.63;5117389;28;20055;-70
2023/10/17 13:43:19;;;;;;;0.65;0.65;;;;;;;14.54;46.46;99958.03;5117726;28;20366;-70
2023/10/17 13:45:48;;;;;;;0.50;0.50;;;;;;;14.54;46.26;99952.91;5117577;28;20397;-70